sensor_id;sensor_type;location;lat;lon;timestamp;temperature;humidity
22065;DHT22;11197;53.110;8.468;2023-10-08T00:01:42;14.10;99.90
22065;DHT22;11197;53.110;8.468;2023-10-08T00:04:09;14.10;99.90
22065;DHT22;11197;53.110;8.468;2023-10-08T00:06:36;14.10;99.90
22065;DHT22;11197;53.110;8.468;2023-10-08T00:09:03;14.10;99.90
22065;DHT22;11197;53.110;8.468;2023-10-08T00:11:34;14.10;99.90
22065;DHT22;11197;53.110;8.468;2023-10-08T00:14:00;14.10;99.90
22065;DHT22;11197;53.110;8.468;2023-10-08T00:16:26;14.10;99.90
22065;DHT22;11197;53.110;8.468;2023-10-08T00:18:54;14.10;99.90
22065;DHT22;11197;53.110;8.468;2023-10-08T00:21:24;14.10;99.90
22065;DHT22;11197;53.110;8.468;2023-10-08T00:23:52;14.10;99.90
22065;DHT22;11197;53.110;8.468;2023-10-08T00:26:20;14.10;99.90
22065;DHT22;11197;53.110;8.468;2023-10-08T00:29:05;14.00;99.90
22065;DHT22;11197;53.110;8.468;2023-10-08T00:31:43;14.00;99.90
22065;DHT22;11197;53.110;8.468;2023-10-08T00:34:12;14.00;99.90
22065;DHT22;11197;53.110;8.468;2023-10-08T00:36:46;14.00;99.90
22065;DHT22;11197;53.110;8.468;2023-10-08T00:39:14;14.00;99.90
22065;DHT22;11197;53.110;8.468;2023-10-08T00:41:44;14.00;99.90
22065;DHT22;11197;53.110;8.468;2023-10-08T00:44:12;14.00;99.90
22065;DHT22;11197;53.110;8.468;2023-10-08T00:46:57;14.00;99.90
22065;DHT22;11197;53.110;8.468;2023-10-08T00:49:27;14.00;99.90
22065;DHT22;11197;53.110;8.468;2023-10-08T00:52:13;14.10;99.90
22065;DHT22;11197;53.110;8.468;2023-10-08T00:54:40;14.10;99.90
22065;DHT22;11197;53.110;8.468;2023-10-08T00:57:28;14.00;99.90
22065;DHT22;11197;53.110;8.468;2023-10-08T00:59:56;14.00;99.90
22065;DHT22;11197;53.110;8.468;2023-10-08T01:02:30;14.00;99.90
22065;DHT22;11197;53.110;8.468;2023-10-08T01:05:13;14.00;99.90
22065;DHT22;11197;53.110;8.468;2023-10-08T01:07:40;14.00;99.90
22065;DHT22;11197;53.110;8.468;2023-10-08T01:10:10;14.00;99.90
22065;DHT22;11197;53.110;8.468;2023-10-08T01:12:38;14.00;99.90
22065;DHT22;11197;53.110;8.468;2023-10-08T01:15:21;13.90;99.90
22065;DHT22;11197;53.110;8.468;2023-10-08T01:17:54;13.90;99.90
22065;DHT22;11197;53.110;8.468;2023-10-08T01:20:25;13.90;99.90
22065;DHT22;11197;53.110;8.468;2023-10-08T01:23:09;13.90;99.90
22065;DHT22;11197;53.110;8.468;2023-10-08T01:25:37;13.90;99.90
22065;DHT22;11197;53.110;8.468;2023-10-08T01:28:04;13.90;99.90
22065;DHT22;11197;53.110;8.468;2023-10-08T01:30:35;13.90;99.90
22065;DHT22;11197;53.110;8.468;2023-10-08T01:33:07;13.90;99.90
22065;DHT22;11197;53.110;8.468;2023-10-08T01:35:38;13.90;99.90
22065;DHT22;11197;53.110;8.468;2023-10-08T01:38:04;13.90;99.90
22065;DHT22;11197;53.110;8.468;2023-10-08T01:40:32;13.90;99.90
22065;DHT22;11197;53.110;8.468;2023-10-08T01:42:57;13.90;99.90
22065;DHT22;11197;53.110;8.468;2023-10-08T01:45:26;13.90;99.90
22065;DHT22;11197;53.110;8.468;2023-10-08T01:47:52;13.90;99.90
22065;DHT22;11197;53.110;8.468;2023-10-08T01:50:20;13.90;99.90
22065;DHT22;11197;53.110;8.468;2023-10-08T01:52:50;13.90;99.90
22065;DHT22;11197;53.110;8.468;2023-10-08T01:55:19;13.90;99.90
22065;DHT22;11197;53.110;8.468;2023-10-08T01:57:46;13.80;99.90
22065;DHT22;11197;53.110;8.468;2023-10-08T02:00:12;13.80;99.90
22065;DHT22;11197;53.110;8.468;2023-10-08T02:02:47;13.80;99.90
22065;DHT22;11197;53.110;8.468;2023-10-08T02:05:12;13.80;99.90
22065;DHT22;11197;53.110;8.468;2023-10-08T02:07:41;13.80;99.90
22065;DHT22;11197;53.110;8.468;2023-10-08T02:10:10;13.80;99.90
22065;DHT22;11197;53.110;8.468;2023-10-08T02:12:37;13.80;99.90
22065;DHT22;11197;53.110;8.468;2023-10-08T02:15:04;13.80;99.90
22065;DHT22;11197;53.110;8.468;2023-10-08T02:17:30;13.80;99.90
22065;DHT22;11197;53.110;8.468;2023-10-08T02:19:55;13.80;99.90
22065;DHT22;11197;53.110;8.468;2023-10-08T02:22:21;13.80;99.90
22065;DHT22;11197;53.110;8.468;2023-10-08T02:24:47;13.80;99.90
22065;DHT22;11197;53.110;8.468;2023-10-08T02:27:13;13.80;99.90
22065;DHT22;11197;53.110;8.468;2023-10-08T02:29:40;13.80;99.90
22065;DHT22;11197;53.110;8.468;2023-10-08T02:32:07;13.80;99.90
22065;DHT22;11197;53.110;8.468;2023-10-08T02:34:33;13.80;99.90
22065;DHT22;11197;53.110;8.468;2023-10-08T02:36:59;13.80;99.90
22065;DHT22;11197;53.110;8.468;2023-10-08T02:39:25;13.70;99.90
22065;DHT22;11197;53.110;8.468;2023-10-08T02:41:52;13.70;99.90
22065;DHT22;11197;53.110;8.468;2023-10-08T02:44:19;13.70;99.90
22065;DHT22;11197;53.110;8.468;2023-10-08T02:46:47;13.70;99.90
22065;DHT22;11197;53.110;8.468;2023-10-08T02:49:14;13.70;99.90
22065;DHT22;11197;53.110;8.468;2023-10-08T02:51:46;13.70;99.90
22065;DHT22;11197;53.110;8.468;2023-10-08T02:54:13;13.70;99.90
22065;DHT22;11197;53.110;8.468;2023-10-08T02:56:47;13.70;99.90
22065;DHT22;11197;53.110;8.468;2023-10-08T02:59:16;13.70;99.90
22065;DHT22;11197;53.110;8.468;2023-10-08T03:01:42;13.70;99.90
22065;DHT22;11197;53.110;8.468;2023-10-08T03:04:10;13.70;99.90
22065;DHT22;11197;53.110;8.468;2023-10-08T03:06:45;13.70;99.90
22065;DHT22;11197;53.110;8.468;2023-10-08T03:09:16;13.70;99.90
22065;DHT22;11197;53.110;8.468;2023-10-08T03:11:48;13.70;99.90
22065;DHT22;11197;53.110;8.468;2023-10-08T03:14:18;13.70;99.90
22065;DHT22;11197;53.110;8.468;2023-10-08T03:16:53;13.60;99.90
22065;DHT22;11197;53.110;8.468;2023-10-08T03:19:21;13.60;99.90
22065;DHT22;11197;53.110;8.468;2023-10-08T03:21:50;13.60;99.90
22065;DHT22;11197;53.110;8.468;2023-10-08T03:24:23;13.60;99.90
22065;DHT22;11197;53.110;8.468;2023-10-08T03:27:01;13.60;99.90
22065;DHT22;11197;53.110;8.468;2023-10-08T03:29:38;13.50;99.90
22065;DHT22;11197;53.110;8.468;2023-10-08T03:32:10;13.60;99.90
22065;DHT22;11197;53.110;8.468;2023-10-08T03:34:46;13.60;99.90
22065;DHT22;11197;53.110;8.468;2023-10-08T03:37:20;13.60;99.90
22065;DHT22;11197;53.110;8.468;2023-10-08T03:39:50;13.60;99.90
22065;DHT22;11197;53.110;8.468;2023-10-08T03:42:34;13.60;99.90
22065;DHT22;11197;53.110;8.468;2023-10-08T03:45:06;13.60;99.90
22065;DHT22;11197;53.110;8.468;2023-10-08T03:47:42;13.60;99.90
22065;DHT22;11197;53.110;8.468;2023-10-08T03:50:12;13.60;99.90
22065;DHT22;11197;53.110;8.468;2023-10-08T03:52:42;13.60;99.90
22065;DHT22;11197;53.110;8.468;2023-10-08T03:55:10;13.50;99.90
22065;DHT22;11197;53.110;8.468;2023-10-08T03:57:46;13.50;99.90
22065;DHT22;11197;53.110;8.468;2023-10-08T04:00:14;13.60;99.90
22065;DHT22;11197;53.110;8.468;2023-10-08T04:02:45;13.60;99.90
22065;DHT22;11197;53.110;8.468;2023-10-08T04:05:22;13.50;99.90
22065;DHT22;11197;53.110;8.468;2023-10-08T04:07:53;13.60;99.90
22065;DHT22;11197;53.110;8.468;2023-10-08T04:10:29;13.50;99.90
22065;DHT22;11197;53.110;8.468;2023-10-08T04:13:04;13.50;99.90
22065;DHT22;11197;53.110;8.468;2023-10-08T04:15:34;13.50;99.90
22065;DHT22;11197;53.110;8.468;2023-10-08T04:18:00;13.50;99.90
22065;DHT22;11197;53.110;8.468;2023-10-08T04:20:28;13.50;99.90
22065;DHT22;11197;53.110;8.468;2023-10-08T04:23:05;13.50;99.90
22065;DHT22;11197;53.110;8.468;2023-10-08T04:25:32;13.50;99.90
22065;DHT22;11197;53.110;8.468;2023-10-08T04:27:59;13.50;99.90
22065;DHT22;11197;53.110;8.468;2023-10-08T04:30:32;13.50;99.90
22065;DHT22;11197;53.110;8.468;2023-10-08T04:33:05;13.50;99.90
22065;DHT22;11197;53.110;8.468;2023-10-08T04:35:37;13.50;99.90
22065;DHT22;11197;53.110;8.468;2023-10-08T04:38:14;13.50;99.90
22065;DHT22;11197;53.110;8.468;2023-10-08T04:40:42;13.50;99.90
22065;DHT22;11197;53.110;8.468;2023-10-08T04:43:18;13.50;99.90
22065;DHT22;11197;53.110;8.468;2023-10-08T04:45:54;13.50;99.90
22065;DHT22;11197;53.110;8.468;2023-10-08T04:48:22;13.50;99.90
22065;DHT22;11197;53.110;8.468;2023-10-08T04:50:52;13.50;99.90
22065;DHT22;11197;53.110;8.468;2023-10-08T04:53:34;13.50;99.90
22065;DHT22;11197;53.110;8.468;2023-10-08T04:56:07;13.50;99.90
22065;DHT22;11197;53.110;8.468;2023-10-08T04:58:43;13.50;99.90
22065;DHT22;11197;53.110;8.468;2023-10-08T05:01:16;13.50;99.90
22065;DHT22;11197;53.110;8.468;2023-10-08T05:04:04;13.50;99.90
22065;DHT22;11197;53.110;8.468;2023-10-08T05:06:31;13.50;99.90
22065;DHT22;11197;53.110;8.468;2023-10-08T05:09:18;13.50;99.90
22065;DHT22;11197;53.110;8.468;2023-10-08T05:11:44;13.50;99.90
22065;DHT22;11197;53.110;8.468;2023-10-08T05:14:20;13.50;99.90
22065;DHT22;11197;53.110;8.468;2023-10-08T05:17:03;13.50;99.90
22065;DHT22;11197;53.110;8.468;2023-10-08T05:19:35;13.50;99.90
22065;DHT22;11197;53.110;8.468;2023-10-08T05:22:14;13.50;99.90
22065;DHT22;11197;53.110;8.468;2023-10-08T05:25:03;13.50;99.90
22065;DHT22;11197;53.110;8.468;2023-10-08T05:27:43;13.50;99.90
22065;DHT22;11197;53.110;8.468;2023-10-08T05:30:18;13.40;99.90
22065;DHT22;11197;53.110;8.468;2023-10-08T05:33:07;13.50;99.90
22065;DHT22;11197;53.110;8.468;2023-10-08T05:35:43;13.50;99.90
22065;DHT22;11197;53.110;8.468;2023-10-08T05:38:19;13.50;99.90
22065;DHT22;11197;53.110;8.468;2023-10-08T05:41:00;13.50;99.90
22065;DHT22;11197;53.110;8.468;2023-10-08T05:43:33;13.50;99.90
22065;DHT22;11197;53.110;8.468;2023-10-08T05:46:03;13.50;99.90
22065;DHT22;11197;53.110;8.468;2023-10-08T05:49:04;13.50;99.90
22065;DHT22;11197;53.110;8.468;2023-10-08T05:51:37;13.40;99.90
22065;DHT22;11197;53.110;8.468;2023-10-08T05:54:12;13.50;99.90
22065;DHT22;11197;53.110;8.468;2023-10-08T05:57:09;13.40;99.90
22065;DHT22;11197;53.110;8.468;2023-10-08T05:59:38;13.50;99.90
22065;DHT22;11197;53.110;8.468;2023-10-08T06:02:24;13.40;99.90
22065;DHT22;11197;53.110;8.468;2023-10-08T06:05:05;13.40;99.90
22065;DHT22;11197;53.110;8.468;2023-10-08T06:07:46;13.50;99.90
22065;DHT22;11197;53.110;8.468;2023-10-08T06:10:25;13.50;99.90
22065;DHT22;11197;53.110;8.468;2023-10-08T06:13:04;13.50;99.90
22065;DHT22;11197;53.110;8.468;2023-10-08T06:15:56;13.50;99.90
22065;DHT22;11197;53.110;8.468;2023-10-08T06:18:24;13.50;99.90
22065;DHT22;11197;53.110;8.468;2023-10-08T06:20:57;13.50;99.90
22065;DHT22;11197;53.110;8.468;2023-10-08T06:23:24;13.40;99.90
22065;DHT22;11197;53.110;8.468;2023-10-08T06:25:51;13.50;99.90
22065;DHT22;11197;53.110;8.468;2023-10-08T06:28:23;13.50;99.90
22065;DHT22;11197;53.110;8.468;2023-10-08T06:30:55;13.50;99.90
22065;DHT22;11197;53.110;8.468;2023-10-08T06:33:25;13.50;99.90
22065;DHT22;11197;53.110;8.468;2023-10-08T06:35:56;13.50;99.90
22065;DHT22;11197;53.110;8.468;2023-10-08T06:38:34;13.50;99.90
22065;DHT22;11197;53.110;8.468;2023-10-08T06:41:02;13.50;99.90
22065;DHT22;11197;53.110;8.468;2023-10-08T06:43:35;13.50;99.90
22065;DHT22;11197;53.110;8.468;2023-10-08T06:46:03;13.50;99.90
22065;DHT22;11197;53.110;8.468;2023-10-08T06:48:32;13.50;99.90
22065;DHT22;11197;53.110;8.468;2023-10-08T06:51:00;13.50;99.90
22065;DHT22;11197;53.110;8.468;2023-10-08T06:53:33;13.50;99.90
22065;DHT22;11197;53.110;8.468;2023-10-08T06:56:00;13.50;99.90
22065;DHT22;11197;53.110;8.468;2023-10-08T06:58:30;13.50;99.90
22065;DHT22;11197;53.110;8.468;2023-10-08T07:00:59;13.50;99.90
22065;DHT22;11197;53.110;8.468;2023-10-08T07:03:30;13.50;99.90
22065;DHT22;11197;53.110;8.468;2023-10-08T07:05:57;13.50;99.90
22065;DHT22;11197;53.110;8.468;2023-10-08T07:08:32;13.50;99.90
22065;DHT22;11197;53.110;8.468;2023-10-08T07:11:02;13.50;99.90
22065;DHT22;11197;53.110;8.468;2023-10-08T07:13:37;13.50;99.90
22065;DHT22;11197;53.110;8.468;2023-10-08T07:16:05;13.50;99.90
22065;DHT22;11197;53.110;8.468;2023-10-08T07:18:37;13.50;99.90
22065;DHT22;11197;53.110;8.468;2023-10-08T07:21:03;13.50;99.90
22065;DHT22;11197;53.110;8.468;2023-10-08T07:23:30;13.50;99.90
22065;DHT22;11197;53.110;8.468;2023-10-08T07:26:03;13.60;99.90
22065;DHT22;11197;53.110;8.468;2023-10-08T07:28:44;13.50;99.90
22065;DHT22;11197;53.110;8.468;2023-10-08T07:33:43;13.60;99.90
22065;DHT22;11197;53.110;8.468;2023-10-08T07:36:13;13.60;99.90
22065;DHT22;11197;53.110;8.468;2023-10-08T07:38:41;13.60;99.90
22065;DHT22;11197;53.110;8.468;2023-10-08T07:41:13;13.60;99.90
22065;DHT22;11197;53.110;8.468;2023-10-08T07:43:43;13.60;99.90
22065;DHT22;11197;53.110;8.468;2023-10-08T07:46:10;13.60;99.90
22065;DHT22;11197;53.110;8.468;2023-10-08T07:48:36;13.60;99.90
22065;DHT22;11197;53.110;8.468;2023-10-08T07:51:07;13.60;99.90
22065;DHT22;11197;53.110;8.468;2023-10-08T07:53:33;13.60;99.90
22065;DHT22;11197;53.110;8.468;2023-10-08T07:56:06;13.60;99.90
22065;DHT22;11197;53.110;8.468;2023-10-08T07:58:35;13.70;99.90
22065;DHT22;11197;53.110;8.468;2023-10-08T08:01:05;13.70;99.90
22065;DHT22;11197;53.110;8.468;2023-10-08T08:03:36;13.70;99.90
22065;DHT22;11197;53.110;8.468;2023-10-08T08:06:05;13.70;99.90
22065;DHT22;11197;53.110;8.468;2023-10-08T08:08:32;13.70;99.90
22065;DHT22;11197;53.110;8.468;2023-10-08T08:10:59;13.70;99.90
22065;DHT22;11197;53.110;8.468;2023-10-08T08:13:29;13.80;99.90
22065;DHT22;11197;53.110;8.468;2023-10-08T08:15:58;13.80;99.90
22065;DHT22;11197;53.110;8.468;2023-10-08T08:18:26;13.80;99.90
22065;DHT22;11197;53.110;8.468;2023-10-08T08:20:59;13.80;99.90
22065;DHT22;11197;53.110;8.468;2023-10-08T08:23:28;13.80;99.90
22065;DHT22;11197;53.110;8.468;2023-10-08T08:25:54;13.80;99.90
22065;DHT22;11197;53.110;8.468;2023-10-08T08:28:37;13.80;99.90
22065;DHT22;11197;53.110;8.468;2023-10-08T08:31:04;13.80;99.90
22065;DHT22;11197;53.110;8.468;2023-10-08T08:33:40;13.80;99.90
22065;DHT22;11197;53.110;8.468;2023-10-08T08:36:24;13.80;99.90
22065;DHT22;11197;53.110;8.468;2023-10-08T08:38:51;13.90;99.90
22065;DHT22;11197;53.110;8.468;2023-10-08T08:41:16;13.90;99.90
22065;DHT22;11197;53.110;8.468;2023-10-08T08:43:55;13.90;99.90
22065;DHT22;11197;53.110;8.468;2023-10-08T08:46:28;13.90;99.90
22065;DHT22;11197;53.110;8.468;2023-10-08T08:48:55;14.00;99.90
22065;DHT22;11197;53.110;8.468;2023-10-08T08:51:23;14.00;99.90
22065;DHT22;11197;53.110;8.468;2023-10-08T08:53:49;14.00;99.90
22065;DHT22;11197;53.110;8.468;2023-10-08T08:56:15;14.00;99.90
22065;DHT22;11197;53.110;8.468;2023-10-08T08:58:42;14.00;99.90
22065;DHT22;11197;53.110;8.468;2023-10-08T09:01:12;14.00;99.90
22065;DHT22;11197;53.110;8.468;2023-10-08T09:03:39;14.10;99.90
22065;DHT22;11197;53.110;8.468;2023-10-08T09:06:05;14.10;99.90
22065;DHT22;11197;53.110;8.468;2023-10-08T09:08:35;14.00;99.90
22065;DHT22;11197;53.110;8.468;2023-10-08T09:11:01;14.10;99.90
22065;DHT22;11197;53.110;8.468;2023-10-08T09:13:30;14.00;99.90
22065;DHT22;11197;53.110;8.468;2023-10-08T09:18:29;14.10;99.90
22065;DHT22;11197;53.110;8.468;2023-10-08T09:21:07;14.10;99.90
22065;DHT22;11197;53.110;8.468;2023-10-08T09:23:40;14.10;99.90
22065;DHT22;11197;53.110;8.468;2023-10-08T09:26:10;14.10;99.90
22065;DHT22;11197;53.110;8.468;2023-10-08T09:28:37;14.20;99.90
22065;DHT22;11197;53.110;8.468;2023-10-08T09:31:04;14.10;99.90
22065;DHT22;11197;53.110;8.468;2023-10-08T09:33:32;14.10;99.90
22065;DHT22;11197;53.110;8.468;2023-10-08T09:35:58;14.20;99.90
22065;DHT22;11197;53.110;8.468;2023-10-08T09:38:30;14.20;99.90
22065;DHT22;11197;53.110;8.468;2023-10-08T09:40:57;14.20;99.90
22065;DHT22;11197;53.110;8.468;2023-10-08T09:43:23;14.20;99.90
22065;DHT22;11197;53.110;8.468;2023-10-08T09:45:59;14.30;99.90
22065;DHT22;11197;53.110;8.468;2023-10-08T09:48:31;14.20;99.90
22065;DHT22;11197;53.110;8.468;2023-10-08T09:50:59;14.30;99.90
22065;DHT22;11197;53.110;8.468;2023-10-08T09:53:35;14.30;99.90
22065;DHT22;11197;53.110;8.468;2023-10-08T09:56:14;14.30;99.90
22065;DHT22;11197;53.110;8.468;2023-10-08T09:58:41;14.30;99.90
22065;DHT22;11197;53.110;8.468;2023-10-08T10:01:08;14.30;99.90
22065;DHT22;11197;53.110;8.468;2023-10-08T10:03:35;14.40;99.90
22065;DHT22;11197;53.110;8.468;2023-10-08T10:06:02;14.40;99.90
22065;DHT22;11197;53.110;8.468;2023-10-08T10:08:28;14.40;99.90
22065;DHT22;11197;53.110;8.468;2023-10-08T10:11:01;14.50;99.90
22065;DHT22;11197;53.110;8.468;2023-10-08T10:13:28;14.50;99.90
22065;DHT22;11197;53.110;8.468;2023-10-08T10:19:59;14.60;99.90
22065;DHT22;11197;53.110;8.468;2023-10-08T10:22:35;14.60;99.90
22065;DHT22;11197;53.110;8.468;2023-10-08T10:25:56;14.60;99.90
22065;DHT22;11197;53.110;8.468;2023-10-08T10:30:40;14.70;99.90
22065;DHT22;11197;53.110;8.468;2023-10-08T10:33:14;14.80;99.90
22065;DHT22;11197;53.110;8.468;2023-10-08T10:36:12;14.80;99.90
22065;DHT22;11197;53.110;8.468;2023-10-08T10:38:40;14.90;99.90
22065;DHT22;11197;53.110;8.468;2023-10-08T10:41:32;14.90;99.90
22065;DHT22;11197;53.110;8.468;2023-10-08T10:43:59;14.90;99.90
22065;DHT22;11197;53.110;8.468;2023-10-08T10:46:30;14.90;99.90
22065;DHT22;11197;53.110;8.468;2023-10-08T10:49:09;14.90;99.90
22065;DHT22;11197;53.110;8.468;2023-10-08T10:51:50;15.00;99.90
22065;DHT22;11197;53.110;8.468;2023-10-08T10:54:23;15.00;99.90
22065;DHT22;11197;53.110;8.468;2023-10-08T10:56:50;15.00;99.90
22065;DHT22;11197;53.110;8.468;2023-10-08T10:59:33;15.00;99.90
22065;DHT22;11197;53.110;8.468;2023-10-08T11:02:05;15.00;99.90
22065;DHT22;11197;53.110;8.468;2023-10-08T11:04:35;15.10;99.90
22065;DHT22;11197;53.110;8.468;2023-10-08T11:07:21;15.10;99.90
22065;DHT22;11197;53.110;8.468;2023-10-08T11:09:51;15.20;99.90
22065;DHT22;11197;53.110;8.468;2023-10-08T11:12:18;15.20;99.90
22065;DHT22;11197;53.110;8.468;2023-10-08T11:14:49;15.20;99.90
22065;DHT22;11197;53.110;8.468;2023-10-08T11:17:26;15.20;99.90
22065;DHT22;11197;53.110;8.468;2023-10-08T11:19:52;15.30;99.90
22065;DHT22;11197;53.110;8.468;2023-10-08T11:22:18;15.30;99.90
22065;DHT22;11197;53.110;8.468;2023-10-08T11:24:47;15.30;99.90
22065;DHT22;11197;53.110;8.468;2023-10-08T11:27:17;15.30;99.90
22065;DHT22;11197;53.110;8.468;2023-10-08T11:29:55;15.30;99.90
22065;DHT22;11197;53.110;8.468;2023-10-08T11:32:24;15.30;99.90
22065;DHT22;11197;53.110;8.468;2023-10-08T11:34:58;15.30;99.90
22065;DHT22;11197;53.110;8.468;2023-10-08T11:37:45;15.30;99.90
22065;DHT22;11197;53.110;8.468;2023-10-08T11:40:25;15.30;99.90
22065;DHT22;11197;53.110;8.468;2023-10-08T11:43:00;15.40;99.90
22065;DHT22;11197;53.110;8.468;2023-10-08T11:45:28;15.40;99.90
22065;DHT22;11197;53.110;8.468;2023-10-08T11:48:07;15.40;99.90
22065;DHT22;11197;53.110;8.468;2023-10-08T11:50:38;15.40;99.90
22065;DHT22;11197;53.110;8.468;2023-10-08T11:53:06;15.40;99.90
22065;DHT22;11197;53.110;8.468;2023-10-08T11:55:33;15.40;99.90
22065;DHT22;11197;53.110;8.468;2023-10-08T11:58:06;15.40;99.90
22065;DHT22;11197;53.110;8.468;2023-10-08T12:00:43;15.40;99.90
22065;DHT22;11197;53.110;8.468;2023-10-08T12:03:18;15.50;99.90
22065;DHT22;11197;53.110;8.468;2023-10-08T12:05:44;15.50;99.90
22065;DHT22;11197;53.110;8.468;2023-10-08T12:08:17;15.50;99.90
22065;DHT22;11197;53.110;8.468;2023-10-08T12:10:44;15.60;99.90
22065;DHT22;11197;53.110;8.468;2023-10-08T12:13:11;15.60;99.90
22065;DHT22;11197;53.110;8.468;2023-10-08T12:15:37;15.60;99.90
22065;DHT22;11197;53.110;8.468;2023-10-08T12:18:07;15.70;99.90
22065;DHT22;11197;53.110;8.468;2023-10-08T12:20:50;15.70;99.90
22065;DHT22;11197;53.110;8.468;2023-10-08T12:23:16;15.80;99.90
22065;DHT22;11197;53.110;8.468;2023-10-08T12:26:03;15.80;99.90
22065;DHT22;11197;53.110;8.468;2023-10-08T12:28:29;15.80;99.90
22065;DHT22;11197;53.110;8.468;2023-10-08T12:30:55;15.80;99.90
22065;DHT22;11197;53.110;8.468;2023-10-08T12:33:23;15.80;99.90
22065;DHT22;11197;53.110;8.468;2023-10-08T12:35:52;15.80;99.90
22065;DHT22;11197;53.110;8.468;2023-10-08T12:38:22;15.80;99.90
22065;DHT22;11197;53.110;8.468;2023-10-08T12:40:48;15.80;99.90
22065;DHT22;11197;53.110;8.468;2023-10-08T12:43:22;15.80;99.90
22065;DHT22;11197;53.110;8.468;2023-10-08T12:45:51;15.80;99.90
22065;DHT22;11197;53.110;8.468;2023-10-08T12:48:25;15.80;99.90
22065;DHT22;11197;53.110;8.468;2023-10-08T12:50:52;15.80;99.90
22065;DHT22;11197;53.110;8.468;2023-10-08T12:53:26;15.90;99.90
22065;DHT22;11197;53.110;8.468;2023-10-08T12:56:08;15.90;99.90
22065;DHT22;11197;53.110;8.468;2023-10-08T12:58:41;16.00;99.90
22065;DHT22;11197;53.110;8.468;2023-10-08T13:01:10;16.00;99.90
22065;DHT22;11197;53.110;8.468;2023-10-08T13:03:51;16.10;99.90
22065;DHT22;11197;53.110;8.468;2023-10-08T13:06:20;16.10;99.90
22065;DHT22;11197;53.110;8.468;2023-10-08T13:08:49;16.10;99.90
22065;DHT22;11197;53.110;8.468;2023-10-08T13:11:17;16.20;99.90
22065;DHT22;11197;53.110;8.468;2023-10-08T13:13:48;16.20;99.90
22065;DHT22;11197;53.110;8.468;2023-10-08T13:16:14;16.20;99.90
22065;DHT22;11197;53.110;8.468;2023-10-08T13:18:40;16.20;99.90
22065;DHT22;11197;53.110;8.468;2023-10-08T13:21:09;16.20;99.90
22065;DHT22;11197;53.110;8.468;2023-10-08T13:23:35;16.20;99.90
22065;DHT22;11197;53.110;8.468;2023-10-08T13:26:01;16.20;99.90
22065;DHT22;11197;53.110;8.468;2023-10-08T13:28:30;16.20;99.90
22065;DHT22;11197;53.110;8.468;2023-10-08T13:31:05;16.20;99.90
22065;DHT22;11197;53.110;8.468;2023-10-08T13:33:41;16.30;99.90
22065;DHT22;11197;53.110;8.468;2023-10-08T13:36:15;16.20;99.90
22065;DHT22;11197;53.110;8.468;2023-10-08T13:38:41;16.30;99.90
22065;DHT22;11197;53.110;8.468;2023-10-08T13:41:07;16.30;99.90
22065;DHT22;11197;53.110;8.468;2023-10-08T13:43:50;16.30;99.90
22065;DHT22;11197;53.110;8.468;2023-10-08T13:46:24;16.30;99.90
22065;DHT22;11197;53.110;8.468;2023-10-08T13:48:50;16.40;99.90
22065;DHT22;11197;53.110;8.468;2023-10-08T13:53:52;16.30;99.90
22065;DHT22;11197;53.110;8.468;2023-10-08T13:56:19;16.30;99.90
22065;DHT22;11197;53.110;8.468;2023-10-08T13:58:55;16.40;99.90
22065;DHT22;11197;53.110;8.468;2023-10-08T14:01:38;16.40;99.90
22065;DHT22;11197;53.110;8.468;2023-10-08T14:04:06;16.40;99.90
22065;DHT22;11197;53.110;8.468;2023-10-08T14:06:33;16.40;99.90
22065;DHT22;11197;53.110;8.468;2023-10-08T14:09:05;16.40;99.90
22065;DHT22;11197;53.110;8.468;2023-10-08T14:11:38;16.50;99.90
22065;DHT22;11197;53.110;8.468;2023-10-08T14:14:04;16.50;99.90
22065;DHT22;11197;53.110;8.468;2023-10-08T14:16:40;16.50;99.90
22065;DHT22;11197;53.110;8.468;2023-10-08T14:19:09;16.40;99.90
22065;DHT22;11197;53.110;8.468;2023-10-08T14:21:38;16.50;99.90
22065;DHT22;11197;53.110;8.468;2023-10-08T14:24:15;16.50;99.90
22065;DHT22;11197;53.110;8.468;2023-10-08T14:26:41;16.60;99.90
22065;DHT22;11197;53.110;8.468;2023-10-08T14:29:08;16.60;99.90
22065;DHT22;11197;53.110;8.468;2023-10-08T14:31:39;16.60;99.90
22065;DHT22;11197;53.110;8.468;2023-10-08T14:34:05;16.60;99.90
22065;DHT22;11197;53.110;8.468;2023-10-08T14:36:34;16.60;99.90
22065;DHT22;11197;53.110;8.468;2023-10-08T14:39:21;16.70;99.90
22065;DHT22;11197;53.110;8.468;2023-10-08T14:42:06;16.60;99.90
22065;DHT22;11197;53.110;8.468;2023-10-08T14:44:50;16.70;99.90
22065;DHT22;11197;53.110;8.468;2023-10-08T14:47:16;16.70;99.90
22065;DHT22;11197;53.110;8.468;2023-10-08T14:49:42;16.70;99.90
22065;DHT22;11197;53.110;8.468;2023-10-08T14:52:09;16.70;99.90
22065;DHT22;11197;53.110;8.468;2023-10-08T14:54:35;16.60;99.90
22065;DHT22;11197;53.110;8.468;2023-10-08T14:57:00;16.60;99.90
22065;DHT22;11197;53.110;8.468;2023-10-08T14:59:28;16.70;99.90
22065;DHT22;11197;53.110;8.468;2023-10-08T15:01:56;16.60;99.90
22065;DHT22;11197;53.110;8.468;2023-10-08T15:04:21;16.50;99.90
22065;DHT22;11197;53.110;8.468;2023-10-08T15:06:48;16.50;99.90
22065;DHT22;11197;53.110;8.468;2023-10-08T15:09:15;16.50;99.90
22065;DHT22;11197;53.110;8.468;2023-10-08T15:11:55;16.50;99.90
22065;DHT22;11197;53.110;8.468;2023-10-08T15:14:23;16.50;99.90
22065;DHT22;11197;53.110;8.468;2023-10-08T15:16:50;16.40;99.90
22065;DHT22;11197;53.110;8.468;2023-10-08T15:19:22;16.40;99.90
22065;DHT22;11197;53.110;8.468;2023-10-08T15:21:48;16.50;99.90
22065;DHT22;11197;53.110;8.468;2023-10-08T15:24:18;16.50;99.90
22065;DHT22;11197;53.110;8.468;2023-10-08T15:26:49;16.50;99.90
22065;DHT22;11197;53.110;8.468;2023-10-08T15:29:16;16.50;99.90
22065;DHT22;11197;53.110;8.468;2023-10-08T15:31:42;16.50;99.90
22065;DHT22;11197;53.110;8.468;2023-10-08T15:34:08;16.50;99.90
22065;DHT22;11197;53.110;8.468;2023-10-08T15:36:34;16.50;99.90
22065;DHT22;11197;53.110;8.468;2023-10-08T15:39:00;16.50;99.90
22065;DHT22;11197;53.110;8.468;2023-10-08T15:41:25;16.50;99.90
22065;DHT22;11197;53.110;8.468;2023-10-08T15:43:51;16.50;99.90
22065;DHT22;11197;53.110;8.468;2023-10-08T15:46:19;16.50;99.90
22065;DHT22;11197;53.110;8.468;2023-10-08T15:48:45;16.50;99.90
22065;DHT22;11197;53.110;8.468;2023-10-08T15:51:12;16.40;99.90
22065;DHT22;11197;53.110;8.468;2023-10-08T15:53:37;16.40;99.90
22065;DHT22;11197;53.110;8.468;2023-10-08T15:56:04;16.40;99.90
22065;DHT22;11197;53.110;8.468;2023-10-08T15:58:30;16.30;99.90
22065;DHT22;11197;53.110;8.468;2023-10-08T16:00:55;16.30;99.90
22065;DHT22;11197;53.110;8.468;2023-10-08T16:03:21;16.30;99.90
22065;DHT22;11197;53.110;8.468;2023-10-08T16:05:47;16.20;99.90
22065;DHT22;11197;53.110;8.468;2023-10-08T16:08:17;16.20;99.90
22065;DHT22;11197;53.110;8.468;2023-10-08T16:10:42;16.20;99.90